sensor_id;sensor_type;location;lat;lon;timestamp;pressure;altitude;pressure_sealevel;temperature
70050;BMP180;57391;51.306;22.680;2022-09-01T00:02:25;99996.20;;;12.80
70050;BMP180;57391;51.306;22.680;2022-09-01T00:04:55;99996.60;;;12.80
70050;BMP180;57391;51.306;22.680;2022-09-01T00:07:28;99997.80;;;12.80
70050;BMP180;57391;51.306;22.680;2022-09-01T00:09:59;99995.60;;;12.80
70050;BMP180;57391;51.306;22.680;2022-09-01T00:12:28;99998.80;;;12.80
70050;BMP180;57391;51.306;22.680;2022-09-01T00:14:56;99995.80;;;12.80
70050;BMP180;57391;51.306;22.680;2022-09-01T00:17:26;99992.80;;;12.78
70050;BMP180;57391;51.306;22.680;2022-09-01T00:19:54;99994.60;;;12.80
70050;BMP180;57391;51.306;22.680;2022-09-01T00:22:21;99996.80;;;12.76
70050;BMP180;57391;51.306;22.680;2022-09-01T00:24:48;99995.80;;;12.74
70050;BMP180;57391;51.306;22.680;2022-09-01T00:27:16;99994.40;;;12.70
70050;BMP180;57391;51.306;22.680;2022-09-01T00:29:43;99995.40;;;12.70
70050;BMP180;57391;51.306;22.680;2022-09-01T00:32:11;99997.60;;;12.68
70050;BMP180;57391;51.306;22.680;2022-09-01T00:34:39;99993.20;;;12.60
70050;BMP180;57391;51.306;22.680;2022-09-01T00:37:06;99992.80;;;12.50
70050;BMP180;57391;51.306;22.680;2022-09-01T00:39:34;99993.40;;;12.44
70050;BMP180;57391;51.306;22.680;2022-09-01T00:42:04;99993.00;;;12.40
70050;BMP180;57391;51.306;22.680;2022-09-01T00:44:31;99991.80;;;12.32
70050;BMP180;57391;51.306;22.680;2022-09-01T00:46:58;99992.80;;;12.30
70050;BMP180;57391;51.306;22.680;2022-09-01T00:49:42;99993.40;;;12.30
70050;BMP180;57391;51.306;22.680;2022-09-01T00:52:15;99993.60;;;12.28
70050;BMP180;57391;51.306;22.680;2022-09-01T00:54:49;99996.60;;;12.20
70050;BMP180;57391;51.306;22.680;2022-09-01T00:57:16;99993.60;;;12.20
70050;BMP180;57391;51.306;22.680;2022-09-01T01:00:15;99998.80;;;12.20
70050;BMP180;57391;51.306;22.680;2022-09-01T01:02:43;99996.60;;;12.20
70050;BMP180;57391;51.306;22.680;2022-09-01T01:05:11;99997.40;;;12.12
70050;BMP180;57391;51.306;22.680;2022-09-01T01:07:39;99993.80;;;12.10
70050;BMP180;57391;51.306;22.680;2022-09-01T01:10:11;99997.60;;;12.10
70050;BMP180;57391;51.306;22.680;2022-09-01T01:12:41;100001.60;;;12.10
70050;BMP180;57391;51.306;22.680;2022-09-01T01:15:13;99995.20;;;12.00
70050;BMP180;57391;51.306;22.680;2022-09-01T01:17:40;100000.20;;;12.00
70050;BMP180;57391;51.306;22.680;2022-09-01T01:20:11;99995.00;;;11.90
70050;BMP180;57391;51.306;22.680;2022-09-01T01:25:54;99996.20;;;11.86
70050;BMP180;57391;51.306;22.680;2022-09-01T01:28:34;99996.40;;;11.80
70050;BMP180;57391;51.306;22.680;2022-09-01T01:31:14;99993.60;;;11.80
70050;BMP180;57391;51.306;22.680;2022-09-01T01:33:49;99992.60;;;11.80
70050;BMP180;57391;51.306;22.680;2022-09-01T01:36:31;99992.60;;;11.70
70050;BMP180;57391;51.306;22.680;2022-09-01T01:39:15;99991.60;;;11.76
70050;BMP180;57391;51.306;22.680;2022-09-01T01:41:45;99992.20;;;11.70
70050;BMP180;57391;51.306;22.680;2022-09-01T01:44:22;99992.80;;;11.70
70050;BMP180;57391;51.306;22.680;2022-09-01T01:46:53;99991.20;;;11.70
70050;BMP180;57391;51.306;22.680;2022-09-01T01:49:25;99987.00;;;11.70
70050;BMP180;57391;51.306;22.680;2022-09-01T01:51:53;99989.80;;;11.70
70050;BMP180;57391;51.306;22.680;2022-09-01T01:54:27;99983.80;;;11.70
70050;BMP180;57391;51.306;22.680;2022-09-01T01:57:00;99983.20;;;11.70
70050;BMP180;57391;51.306;22.680;2022-09-01T01:59:30;99988.00;;;11.70
70050;BMP180;57391;51.306;22.680;2022-09-01T02:01:59;99984.00;;;11.70
70050;BMP180;57391;51.306;22.680;2022-09-01T02:04:29;99981.00;;;11.70
70050;BMP180;57391;51.306;22.680;2022-09-01T02:07:01;99978.00;;;11.78
70050;BMP180;57391;51.306;22.680;2022-09-01T02:09:28;99979.40;;;11.80
70050;BMP180;57391;51.306;22.680;2022-09-01T02:11:55;99975.60;;;11.80
70050;BMP180;57391;51.306;22.680;2022-09-01T02:14:24;99975.20;;;11.80
70050;BMP180;57391;51.306;22.680;2022-09-01T02:16:51;99976.00;;;11.70
70050;BMP180;57391;51.306;22.680;2022-09-01T02:19:21;99973.80;;;11.70
70050;BMP180;57391;51.306;22.680;2022-09-01T02:21:48;99972.80;;;11.60
70050;BMP180;57391;51.306;22.680;2022-09-01T02:24:20;99974.20;;;11.60
70050;BMP180;57391;51.306;22.680;2022-09-01T02:26:49;99975.00;;;11.60
70050;BMP180;57391;51.306;22.680;2022-09-01T02:29:21;99976.60;;;11.50
70050;BMP180;57391;51.306;22.680;2022-09-01T02:31:52;99977.80;;;11.50
70050;BMP180;57391;51.306;22.680;2022-09-01T02:34:24;99980.20;;;11.50
70050;BMP180;57391;51.306;22.680;2022-09-01T02:36:56;99979.40;;;11.40
70050;BMP180;57391;51.306;22.680;2022-09-01T02:39:30;99978.40;;;11.40
70050;BMP180;57391;51.306;22.680;2022-09-01T02:42:01;99980.20;;;11.40
70050;BMP180;57391;51.306;22.680;2022-09-01T02:44:29;99980.00;;;11.30
70050;BMP180;57391;51.306;22.680;2022-09-01T02:46:59;99984.00;;;11.30
70050;BMP180;57391;51.306;22.680;2022-09-01T02:49:27;99984.20;;;11.20
70050;BMP180;57391;51.306;22.680;2022-09-01T02:51:58;99983.20;;;11.20
70050;BMP180;57391;51.306;22.680;2022-09-01T02:54:30;99983.60;;;11.10
70050;BMP180;57391;51.306;22.680;2022-09-01T02:56:59;99986.00;;;11.10
70050;BMP180;57391;51.306;22.680;2022-09-01T02:59:28;99986.20;;;11.10
70050;BMP180;57391;51.306;22.680;2022-09-01T03:02:00;99988.80;;;11.10
70050;BMP180;57391;51.306;22.680;2022-09-01T03:04:28;99987.20;;;11.10
70050;BMP180;57391;51.306;22.680;2022-09-01T03:07:04;99981.80;;;11.00
70050;BMP180;57391;51.306;22.680;2022-09-01T03:09:32;99980.20;;;11.00
70050;BMP180;57391;51.306;22.680;2022-09-01T03:12:03;99978.00;;;10.98
70050;BMP180;57391;51.306;22.680;2022-09-01T03:14:32;99977.20;;;10.90
70050;BMP180;57391;51.306;22.680;2022-09-01T03:17:00;99976.80;;;10.90
70050;BMP180;57391;51.306;22.680;2022-09-01T03:19:27;99975.00;;;10.90
70050;BMP180;57391;51.306;22.680;2022-09-01T03:22:01;99974.60;;;10.90
70050;BMP180;57391;51.306;22.680;2022-09-01T03:24:30;99973.20;;;10.90
70050;BMP180;57391;51.306;22.680;2022-09-01T03:26:57;99972.00;;;10.90
70050;BMP180;57391;51.306;22.680;2022-09-01T03:29:27;99976.20;;;10.90
70050;BMP180;57391;51.306;22.680;2022-09-01T03:31:54;99974.60;;;10.90
70050;BMP180;57391;51.306;22.680;2022-09-01T03:34:22;99977.60;;;10.90
70050;BMP180;57391;51.306;22.680;2022-09-01T03:36:51;99975.60;;;10.90
70050;BMP180;57391;51.306;22.680;2022-09-01T03:39:26;99977.00;;;10.90
70050;BMP180;57391;51.306;22.680;2022-09-01T03:41:53;99979.60;;;10.80
70050;BMP180;57391;51.306;22.680;2022-09-01T03:44:24;99977.80;;;10.80
70050;BMP180;57391;51.306;22.680;2022-09-01T03:46:51;99974.60;;;10.80
70050;BMP180;57391;51.306;22.680;2022-09-01T03:49:19;99977.80;;;10.80
70050;BMP180;57391;51.306;22.680;2022-09-01T03:51:51;99980.80;;;10.80
70050;BMP180;57391;51.306;22.680;2022-09-01T03:54:19;99980.40;;;10.80
70050;BMP180;57391;51.306;22.680;2022-09-01T03:56:50;99976.80;;;10.80
70050;BMP180;57391;51.306;22.680;2022-09-01T03:59:17;99976.00;;;10.80
70050;BMP180;57391;51.306;22.680;2022-09-01T04:01:47;99978.40;;;10.80
70050;BMP180;57391;51.306;22.680;2022-09-01T04:04:14;99977.00;;;10.80
70050;BMP180;57391;51.306;22.680;2022-09-01T04:06:45;99978.00;;;10.80
70050;BMP180;57391;51.306;22.680;2022-09-01T04:09:13;99980.00;;;10.80
70050;BMP180;57391;51.306;22.680;2022-09-01T04:11:44;99977.20;;;10.80
70050;BMP180;57391;51.306;22.680;2022-09-01T04:14:17;99973.60;;;10.90
70050;BMP180;57391;51.306;22.680;2022-09-01T04:16:45;99976.60;;;10.90
70050;BMP180;57391;51.306;22.680;2022-09-01T04:19:35;99975.40;;;10.90
70050;BMP180;57391;51.306;22.680;2022-09-01T04:22:05;99979.80;;;10.90
70050;BMP180;57391;51.306;22.680;2022-09-01T04:24:39;99978.80;;;10.90
70050;BMP180;57391;51.306;22.680;2022-09-01T04:27:13;99978.20;;;11.10
70050;BMP180;57391;51.306;22.680;2022-09-01T04:29:41;99976.60;;;11.50
70050;BMP180;57391;51.306;22.680;2022-09-01T04:32:09;99980.00;;;12.06
70050;BMP180;57391;51.306;22.680;2022-09-01T04:34:44;99972.80;;;13.06
70050;BMP180;57391;51.306;22.680;2022-09-01T04:37:18;99976.60;;;14.28
70050;BMP180;57391;51.306;22.680;2022-09-01T04:39:53;99990.40;;;15.14
70050;BMP180;57391;51.306;22.680;2022-09-01T04:42:27;99984.20;;;15.64
70050;BMP180;57391;51.306;22.680;2022-09-01T04:44:56;99983.80;;;16.10
70050;BMP180;57391;51.306;22.680;2022-09-01T04:47:27;99992.60;;;16.44
70050;BMP180;57391;51.306;22.680;2022-09-01T04:49:58;99993.00;;;16.70
70050;BMP180;57391;51.306;22.680;2022-09-01T04:52:26;99998.40;;;16.80
70050;BMP180;57391;51.306;22.680;2022-09-01T04:54:54;99996.40;;;16.90
70050;BMP180;57391;51.306;22.680;2022-09-01T04:57:21;99996.20;;;17.20
70050;BMP180;57391;51.306;22.680;2022-09-01T04:59:48;100000.80;;;17.20
70050;BMP180;57391;51.306;22.680;2022-09-01T05:02:15;100001.00;;;17.50
70050;BMP180;57391;51.306;22.680;2022-09-01T05:04:42;100006.20;;;17.80
70050;BMP180;57391;51.306;22.680;2022-09-01T05:07:13;100001.00;;;18.02
70050;BMP180;57391;51.306;22.680;2022-09-01T05:09:42;100001.60;;;18.68
70050;BMP180;57391;51.306;22.680;2022-09-01T05:12:28;99996.20;;;19.00
70050;BMP180;57391;51.306;22.680;2022-09-01T05:14:55;99997.20;;;19.68
70050;BMP180;57391;51.306;22.680;2022-09-01T05:17:23;100003.80;;;19.96
70050;BMP180;57391;51.306;22.680;2022-09-01T05:19:52;100002.20;;;20.24
70050;BMP180;57391;51.306;22.680;2022-09-01T05:22:21;100006.00;;;20.40
70050;BMP180;57391;51.306;22.680;2022-09-01T05:25:00;99995.80;;;21.14
70050;BMP180;57391;51.306;22.680;2022-09-01T05:27:44;99995.40;;;22.30
70050;BMP180;57391;51.306;22.680;2022-09-01T05:30:20;100010.00;;;22.60
70050;BMP180;57391;51.306;22.680;2022-09-01T05:32:48;100006.60;;;22.12
70050;BMP180;57391;51.306;22.680;2022-09-01T05:35:17;100010.80;;;21.54
70050;BMP180;57391;51.306;22.680;2022-09-01T05:37:44;100009.60;;;21.28
70050;BMP180;57391;51.306;22.680;2022-09-01T05:40:12;100001.80;;;22.00
70050;BMP180;57391;51.306;22.680;2022-09-01T05:42:43;100006.20;;;22.78
70050;BMP180;57391;51.306;22.680;2022-09-01T05:45:11;100015.40;;;22.66
70050;BMP180;57391;51.306;22.680;2022-09-01T05:47:40;100017.80;;;22.10
70050;BMP180;57391;51.306;22.680;2022-09-01T05:50:09;100020.40;;;21.66
70050;BMP180;57391;51.306;22.680;2022-09-01T05:52:38;100021.20;;;21.62
70050;BMP180;57391;51.306;22.680;2022-09-01T05:55:06;100011.80;;;22.36
70050;BMP180;57391;51.306;22.680;2022-09-01T05:57:37;100010.20;;;23.36
70050;BMP180;57391;51.306;22.680;2022-09-01T06:00:08;100017.20;;;24.14
70050;BMP180;57391;51.306;22.680;2022-09-01T06:02:42;100025.40;;;24.08
70050;BMP180;57391;51.306;22.680;2022-09-01T06:05:17;100025.20;;;23.62
70050;BMP180;57391;51.306;22.680;2022-09-01T06:07:45;100030.00;;;23.30
70050;BMP180;57391;51.306;22.680;2022-09-01T06:10:13;100032.60;;;23.00
70050;BMP180;57391;51.306;22.680;2022-09-01T06:12:41;100028.80;;;23.16
70050;BMP180;57391;51.306;22.680;2022-09-01T06:15:11;100032.20;;;23.60
70050;BMP180;57391;51.306;22.680;2022-09-01T06:17:42;100028.80;;;24.14
70050;BMP180;57391;51.306;22.680;2022-09-01T06:20:10;100030.00;;;24.66
70050;BMP180;57391;51.306;22.680;2022-09-01T06:22:38;100030.00;;;25.20
70050;BMP180;57391;51.306;22.680;2022-09-01T06:25:07;100037.00;;;25.20
70050;BMP180;57391;51.306;22.680;2022-09-01T06:27:37;100037.60;;;24.86
70050;BMP180;57391;51.306;22.680;2022-09-01T06:30:08;100041.40;;;24.42
70050;BMP180;57391;51.306;22.680;2022-09-01T06:32:53;100044.40;;;24.10
70050;BMP180;57391;51.306;22.680;2022-09-01T06:35:21;100044.60;;;24.16
70050;BMP180;57391;51.306;22.680;2022-09-01T06:37:55;100039.80;;;24.60
70050;BMP180;57391;51.306;22.680;2022-09-01T06:40:45;100041.20;;;25.18
70050;BMP180;57391;51.306;22.680;2022-09-01T06:43:14;100044.20;;;25.68
70050;BMP180;57391;51.306;22.680;2022-09-01T06:45:46;100045.80;;;26.08
70050;BMP180;57391;51.306;22.680;2022-09-01T06:48:21;100046.20;;;26.50
70050;BMP180;57391;51.306;22.680;2022-09-01T06:50:50;100045.00;;;26.92
70050;BMP180;57391;51.306;22.680;2022-09-01T06:53:17;100047.20;;;27.34
70050;BMP180;57391;51.306;22.680;2022-09-01T06:55:48;100050.00;;;27.56
70050;BMP180;57391;51.306;22.680;2022-09-01T06:58:16;100053.60;;;27.70
70050;BMP180;57391;51.306;22.680;2022-09-01T07:00:48;100056.00;;;27.60
70050;BMP180;57391;51.306;22.680;2022-09-01T07:03:15;100058.00;;;27.40
70050;BMP180;57391;51.306;22.680;2022-09-01T07:06:05;100060.20;;;27.00
70050;BMP180;57391;51.306;22.680;2022-09-01T07:08:55;100057.80;;;26.70
70050;BMP180;57391;51.306;22.680;2022-09-01T07:11:32;100055.40;;;26.70
70050;BMP180;57391;51.306;22.680;2022-09-01T07:14:04;100053.80;;;26.94
70050;BMP180;57391;51.306;22.680;2022-09-01T07:16:36;100064.20;;;27.20
70050;BMP180;57391;51.306;22.680;2022-09-01T07:19:09;100063.60;;;27.64
70050;BMP180;57391;51.306;22.680;2022-09-01T07:21:47;100061.20;;;27.80
70050;BMP180;57391;51.306;22.680;2022-09-01T07:24:15;100063.00;;;27.90
70050;BMP180;57391;51.306;22.680;2022-09-01T07:27:02;100064.20;;;28.12
70050;BMP180;57391;51.306;22.680;2022-09-01T07:29:29;100068.20;;;28.30
70050;BMP180;57391;51.306;22.680;2022-09-01T07:31:57;100068.20;;;28.40
70050;BMP180;57391;51.306;22.680;2022-09-01T07:34:25;100068.20;;;28.48
70050;BMP180;57391;51.306;22.680;2022-09-01T07:36:52;100075.40;;;28.52
70050;BMP180;57391;51.306;22.680;2022-09-01T07:39:22;100079.80;;;28.50
70050;BMP180;57391;51.306;22.680;2022-09-01T07:42:05;100073.00;;;28.60
70050;BMP180;57391;51.306;22.680;2022-09-01T07:44:56;100075.20;;;28.36
70050;BMP180;57391;51.306;22.680;2022-09-01T07:47:44;100075.60;;;28.20
70050;BMP180;57391;51.306;22.680;2022-09-01T07:50:12;100080.00;;;28.10
70050;BMP180;57391;51.306;22.680;2022-09-01T07:52:41;100076.80;;;27.90
70050;BMP180;57391;51.306;22.680;2022-09-01T07:55:13;100073.20;;;28.00
70050;BMP180;57391;51.306;22.680;2022-09-01T07:57:43;100073.20;;;27.90
70050;BMP180;57391;51.306;22.680;2022-09-01T08:00:14;100073.60;;;27.90
70050;BMP180;57391;51.306;22.680;2022-09-01T08:02:42;100077.20;;;28.10
70050;BMP180;57391;51.306;22.680;2022-09-01T08:05:16;100077.40;;;28.18
70050;BMP180;57391;51.306;22.680;2022-09-01T08:07:48;100074.80;;;28.20
70050;BMP180;57391;51.306;22.680;2022-09-01T08:10:15;100073.80;;;28.32
70050;BMP180;57391;51.306;22.680;2022-09-01T08:12:43;100073.40;;;28.46
70050;BMP180;57391;51.306;22.680;2022-09-01T08:15:11;100078.80;;;28.58
70050;BMP180;57391;51.306;22.680;2022-09-01T08:17:39;100082.00;;;28.60
70050;BMP180;57391;51.306;22.680;2022-09-01T08:20:11;100082.60;;;28.60
70050;BMP180;57391;51.306;22.680;2022-09-01T08:22:52;100080.40;;;28.58
70050;BMP180;57391;51.306;22.680;2022-09-01T08:25:46;100081.60;;;28.60
70050;BMP180;57391;51.306;22.680;2022-09-01T08:28:14;100085.60;;;28.64
70050;BMP180;57391;51.306;22.680;2022-09-01T08:30:45;100089.40;;;28.86
70050;BMP180;57391;51.306;22.680;2022-09-01T08:33:16;100090.00;;;29.08
70050;BMP180;57391;51.306;22.680;2022-09-01T08:35:47;100088.60;;;29.10
70050;BMP180;57391;51.306;22.680;2022-09-01T08:38:15;100086.00;;;29.00
70050;BMP180;57391;51.306;22.680;2022-09-01T08:40:52;100090.60;;;29.00
70050;BMP180;57391;51.306;22.680;2022-09-01T08:44:19;100085.20;;;29.00
70050;BMP180;57391;51.306;22.680;2022-09-01T08:46:43;100090.40;;;28.90
70050;BMP180;57391;51.306;22.680;2022-09-01T08:49:20;100090.60;;;28.90
70050;BMP180;57391;51.306;22.680;2022-09-01T08:52:21;100091.00;;;28.72
70050;BMP180;57391;51.306;22.680;2022-09-01T08:54:58;100090.60;;;28.32
70050;BMP180;57391;51.306;22.680;2022-09-01T08:57:40;100086.40;;;28.10
70050;BMP180;57391;51.306;22.680;2022-09-01T09:00:44;100084.60;;;28.10
70050;BMP180;57391;51.306;22.680;2022-09-01T09:04:19;100085.60;;;28.28
70050;BMP180;57391;51.306;22.680;2022-09-01T09:07:07;100081.00;;;28.40
70050;BMP180;57391;51.306;22.680;2022-09-01T09:09:48;100079.20;;;28.48
70050;BMP180;57391;51.306;22.680;2022-09-01T09:17:35;100082.20;;;28.60
70050;BMP180;57391;51.306;22.680;2022-09-01T09:20:06;100081.60;;;28.66
70050;BMP180;57391;51.306;22.680;2022-09-01T09:22:34;100076.60;;;28.70
70050;BMP180;57391;51.306;22.680;2022-09-01T09:25:12;100074.40;;;28.84
70050;BMP180;57391;51.306;22.680;2022-09-01T09:27:45;100078.80;;;29.04
70050;BMP180;57391;51.306;22.680;2022-09-01T09:30:22;100073.00;;;29.00
70050;BMP180;57391;51.306;22.680;2022-09-01T09:33:34;100076.00;;;28.80
70050;BMP180;57391;51.306;22.680;2022-09-01T09:36:21;100070.00;;;28.30
70050;BMP180;57391;51.306;22.680;2022-09-01T09:41:38;100076.20;;;28.00
70050;BMP180;57391;51.306;22.680;2022-09-01T09:44:38;100074.80;;;28.00
70050;BMP180;57391;51.306;22.680;2022-09-01T09:47:05;100072.60;;;28.10
70050;BMP180;57391;51.306;22.680;2022-09-01T09:49:33;100068.80;;;28.00
70050;BMP180;57391;51.306;22.680;2022-09-01T09:57:24;100070.40;;;27.10
70050;BMP180;57391;51.306;22.680;2022-09-01T10:02:35;100078.60;;;27.36
70050;BMP180;57391;51.306;22.680;2022-09-01T10:05:35;100073.60;;;27.40
70050;BMP180;57391;51.306;22.680;2022-09-01T10:08:07;100078.60;;;27.42
70050;BMP180;57391;51.306;22.680;2022-09-01T10:10:45;100073.00;;;27.40
70050;BMP180;57391;51.306;22.680;2022-09-01T10:13:18;100070.60;;;27.40
70050;BMP180;57391;51.306;22.680;2022-09-01T10:15:56;100065.20;;;27.30
70050;BMP180;57391;51.306;22.680;2022-09-01T10:18:51;100066.60;;;27.10
70050;BMP180;57391;51.306;22.680;2022-09-01T10:21:31;100074.80;;;27.00
70050;BMP180;57391;51.306;22.680;2022-09-01T10:24:29;100070.60;;;26.90
70050;BMP180;57391;51.306;22.680;2022-09-01T10:27:07;100068.60;;;26.80
70050;BMP180;57391;51.306;22.680;2022-09-01T10:29:42;100065.80;;;26.92
70050;BMP180;57391;51.306;22.680;2022-09-01T10:32:38;100073.40;;;27.10
70050;BMP180;57391;51.306;22.680;2022-09-01T10:35:13;100074.40;;;27.06
70050;BMP180;57391;51.306;22.680;2022-09-01T10:37:46;100068.00;;;27.00
70050;BMP180;57391;51.306;22.680;2022-09-01T10:43:21;100062.80;;;27.20
70050;BMP180;57391;51.306;22.680;2022-09-01T10:45:47;100062.40;;;27.30
70050;BMP180;57391;51.306;22.680;2022-09-01T10:50:52;100062.00;;;27.30
70050;BMP180;57391;51.306;22.680;2022-09-01T11:01:15;100053.60;;;26.80
70050;BMP180;57391;51.306;22.680;2022-09-01T11:03:56;100050.00;;;26.80
70050;BMP180;57391;51.306;22.680;2022-09-01T11:17:57;100057.00;;;26.70
70050;BMP180;57391;51.306;22.680;2022-09-01T11:20:28;100054.40;;;26.30
70050;BMP180;57391;51.306;22.680;2022-09-01T11:23:26;100053.00;;;26.20
70050;BMP180;57391;51.306;22.680;2022-09-01T11:26:02;100046.20;;;26.20
70050;BMP180;57391;51.306;22.680;2022-09-01T11:28:48;100040.40;;;26.20
70050;BMP180;57391;51.306;22.680;2022-09-01T11:31:34;100041.40;;;26.20
70050;BMP180;57391;51.306;22.680;2022-09-01T11:34:40;100041.40;;;26.10
70050;BMP180;57391;51.306;22.680;2022-09-01T11:37:15;100045.80;;;25.78
70050;BMP180;57391;51.306;22.680;2022-09-01T11:40:02;100041.20;;;25.50
70050;BMP180;57391;51.306;22.680;2022-09-01T11:42:42;100045.60;;;25.50
70050;BMP180;57391;51.306;22.680;2022-09-01T11:45:17;100046.60;;;25.60
70050;BMP180;57391;51.306;22.680;2022-09-01T11:47:48;100038.40;;;25.66
70050;BMP180;57391;51.306;22.680;2022-09-01T11:53:19;100036.60;;;25.90
70050;BMP180;57391;51.306;22.680;2022-09-01T11:55:51;100037.00;;;25.90
70050;BMP180;57391;51.306;22.680;2022-09-01T12:03:57;100038.20;;;25.78
70050;BMP180;57391;51.306;22.680;2022-09-01T12:06:28;100032.80;;;25.44
70050;BMP180;57391;51.306;22.680;2022-09-01T12:09:02;100032.00;;;25.32
70050;BMP180;57391;51.306;22.680;2022-09-01T12:11:33;100034.00;;;25.20
70050;BMP180;57391;51.306;22.680;2022-09-01T12:14:05;100034.20;;;25.20
70050;BMP180;57391;51.306;22.680;2022-09-01T12:16:39;100031.80;;;25.10
70050;BMP180;57391;51.306;22.680;2022-09-01T12:19:20;100034.00;;;24.80
70050;BMP180;57391;51.306;22.680;2022-09-01T12:22:04;100031.40;;;24.44
70050;BMP180;57391;51.306;22.680;2022-09-01T12:24:34;100030.20;;;24.40
70050;BMP180;57391;51.306;22.680;2022-09-01T12:27:03;100028.00;;;24.42
70050;BMP180;57391;51.306;22.680;2022-09-01T12:29:31;100024.40;;;24.60
70050;BMP180;57391;51.306;22.680;2022-09-01T12:32:00;100023.00;;;24.60
70050;BMP180;57391;51.306;22.680;2022-09-01T12:39:43;100025.20;;;24.04
70050;BMP180;57391;51.306;22.680;2022-09-01T12:45:01;100021.60;;;23.50
70050;BMP180;57391;51.306;22.680;2022-09-01T12:52:57;100017.40;;;23.20
70050;BMP180;57391;51.306;22.680;2022-09-01T12:55:33;100018.80;;;23.10
70050;BMP180;57391;51.306;22.680;2022-09-01T12:58:07;100012.20;;;23.00
70050;BMP180;57391;51.306;22.680;2022-09-01T13:01:04;100012.60;;;22.90
70050;BMP180;57391;51.306;22.680;2022-09-01T13:03:34;100015.20;;;22.70
70050;BMP180;57391;51.306;22.680;2022-09-01T13:06:02;100018.20;;;22.60
70050;BMP180;57391;51.306;22.680;2022-09-01T13:08:33;100018.40;;;22.60
70050;BMP180;57391;51.306;22.680;2022-09-01T13:11:08;100015.20;;;22.50
70050;BMP180;57391;51.306;22.680;2022-09-01T13:13:35;100014.20;;;22.40
70050;BMP180;57391;51.306;22.680;2022-09-01T13:16:06;100017.20;;;22.30
70050;BMP180;57391;51.306;22.680;2022-09-01T13:18:42;100021.00;;;22.20
70050;BMP180;57391;51.306;22.680;2022-09-01T13:21:12;100020.20;;;22.10
70050;BMP180;57391;51.306;22.680;2022-09-01T13:23:39;100016.60;;;22.10
70050;BMP180;57391;51.306;22.680;2022-09-01T13:26:06;100019.20;;;22.10
70050;BMP180;57391;51.306;22.680;2022-09-01T13:28:33;100019.00;;;22.06
70050;BMP180;57391;51.306;22.680;2022-09-01T13:31:03;100018.80;;;22.00
70050;BMP180;57391;51.306;22.680;2022-09-01T13:33:34;100023.40;;;22.10
70050;BMP180;57391;51.306;22.680;2022-09-01T13:36:03;100016.40;;;22.04
70050;BMP180;57391;51.306;22.680;2022-09-01T13:38:30;100020.80;;;22.16
70050;BMP180;57391;51.306;22.680;2022-09-01T13:40:58;100017.20;;;22.40
70050;BMP180;57391;51.306;22.680;2022-09-01T13:43:27;100014.60;;;22.60
70050;BMP180;57391;51.306;22.680;2022-09-01T13:45:55;100014.60;;;22.60
70050;BMP180;57391;51.306;22.680;2022-09-01T13:48:22;100011.60;;;22.68
70050;BMP180;57391;51.306;22.680;2022-09-01T13:50:50;100008.40;;;22.78
70050;BMP180;57391;51.306;22.680;2022-09-01T13:53:21;100006.80;;;22.84
70050;BMP180;57391;51.306;22.680;2022-09-01T13:55:48;100003.80;;;22.90
70050;BMP180;57391;51.306;22.680;2022-09-01T13:58:15;100001.20;;;23.00
70050;BMP180;57391;51.306;22.680;2022-09-01T14:00:46;100006.00;;;23.00
70050;BMP180;57391;51.306;22.680;2022-09-01T14:03:22;100005.00;;;23.00
70050;BMP180;57391;51.306;22.680;2022-09-01T14:05:49;100003.00;;;23.10
70050;BMP180;57391;51.306;22.680;2022-09-01T14:08:19;100004.60;;;23.18
70050;BMP180;57391;51.306;22.680;2022-09-01T14:10:51;100010.40;;;23.10
70050;BMP180;57391;51.306;22.680;2022-09-01T14:13:22;100004.20;;;23.00
70050;BMP180;57391;51.306;22.680;2022-09-01T14:15:50;100002.80;;;22.90
70050;BMP180;57391;51.306;22.680;2022-09-01T14:18:19;100003.00;;;22.70
70050;BMP180;57391;51.306;22.680;2022-09-01T14:20:50;100010.80;;;22.60
70050;BMP180;57391;51.306;22.680;2022-09-01T14:23:18;100001.80;;;22.40
70050;BMP180;57391;51.306;22.680;2022-09-01T14:25:48;100003.00;;;22.30
70050;BMP180;57391;51.306;22.680;2022-09-01T14:28:17;100008.20;;;22.20
70050;BMP180;57391;51.306;22.680;2022-09-01T14:30:45;100006.60;;;22.10
70050;BMP180;57391;51.306;22.680;2022-09-01T14:33:13;100007.20;;;22.00
70050;BMP180;57391;51.306;22.680;2022-09-01T14:35:45;100006.60;;;21.90
70050;BMP180;57391;51.306;22.680;2022-09-01T14:38:15;100009.80;;;21.80
70050;BMP180;57391;51.306;22.680;2022-09-01T14:40:47;100014.00;;;21.70
70050;BMP180;57391;51.306;22.680;2022-09-01T14:43:14;100015.20;;;21.60
70050;BMP180;57391;51.306;22.680;2022-09-01T14:45:43;100008.20;;;21.54
70050;BMP180;57391;51.306;22.680;2022-09-01T14:48:16;100012.40;;;21.48
70050;BMP180;57391;51.306;22.680;2022-09-01T14:50:47;100014.80;;;21.40
70050;BMP180;57391;51.306;22.680;2022-09-01T14:53:15;100017.00;;;21.30
70050;BMP180;57391;51.306;22.680;2022-09-01T14:55:42;100019.00;;;21.30
70050;BMP180;57391;51.306;22.680;2022-09-01T14:58:09;100019.00;;;21.30
70050;BMP180;57391;51.306;22.680;2022-09-01T15:00:36;100019.80;;;21.20
70050;BMP180;57391;51.306;22.680;2022-09-01T15:03:07;100021.00;;;21.12
70050;BMP180;57391;51.306;22.680;2022-09-01T15:05:37;100021.20;;;21.10
70050;BMP180;57391;51.306;22.680;2022-09-01T15:08:05;100021.60;;;21.10
70050;BMP180;57391;51.306;22.680;2022-09-01T15:10:34;100021.20;;;21.00
70050;BMP180;57391;51.306;22.680;2022-09-01T15:13:03;100019.40;;;21.00
70050;BMP180;57391;51.306;22.680;2022-09-01T15:15:31;100020.40;;;21.00
70050;BMP180;57391;51.306;22.680;2022-09-01T15:18:00;100015.40;;;21.00
70050;BMP180;57391;51.306;22.680;2022-09-01T15:20:28;100020.20;;;20.90
70050;BMP180;57391;51.306;22.680;2022-09-01T15:23:19;100022.00;;;20.90
70050;BMP180;57391;51.306;22.680;2022-09-01T15:25:51;100022.60;;;20.90
70050;BMP180;57391;51.306;22.680;2022-09-01T15:28:20;100023.60;;;20.80